Welcome to the New NWS' Forecast!
Most changes are behind the scenes, but click here for differences you might notice.

Terminal Aerodrome Forecast (TAF)

Issued by National Weather Service (NWS)

                            
303 
FTUS42 KMFL 170536
TAFMIA
TAF
KMIA 170536Z 1706/1812 10007KT P6SM FEW025
     FM171400 10009KT P6SM SCT035 SCT060 PROB30 1715/1718 VRB15KT
      4SM TSRA BKN025CB
     FM171800 11012KT P6SM SCT030 BKN050 PROB30 1718/1721 VRB15KT
      4SM TSRA BKN025CB
     FM180300 09007KT P6SM FEW025 SCT060 SCT250=